createdAt,value
2023-02-28T00:00:52.443Z,0.60
2023-02-28T00:03:19.287Z,0.50
2023-02-28T00:05:45.943Z,0.50
2023-02-28T00:08:12.665Z,0.40
2023-02-28T00:10:39.489Z,0.50
2023-02-28T00:13:07.399Z,0.40
2023-02-28T00:15:34.674Z,0.30
2023-02-28T00:18:01.595Z,0.30
2023-02-28T00:20:28.257Z,0.30
2023-02-28T00:22:55.630Z,0.30
2023-02-28T00:25:25.347Z,0.20
2023-02-28T00:27:52.564Z,0.20
2023-02-28T00:30:22.263Z,0.20
2023-02-28T00:32:49.122Z,0.20
2023-02-28T00:35:16.239Z,0.20
2023-02-28T00:37:43.005Z,0.20
2023-02-28T00:40:10.490Z,0.10
2023-02-28T00:42:37.507Z,0.20
2023-02-28T00:45:05.741Z,0.10
2023-02-28T00:47:33.052Z,0.20
2023-02-28T00:50:00.387Z,0.20
2023-02-28T00:52:27.280Z,0.20
2023-02-28T00:54:54.188Z,0.10
2023-02-28T00:57:20.914Z,0.10
2023-02-28T00:59:47.521Z,0.20
2023-02-28T01:02:14.227Z,0.10
2023-02-28T01:04:40.961Z,0.10
2023-02-28T01:07:07.790Z,0.10
2023-02-28T01:09:34.539Z,0.10
2023-02-28T01:12:01.254Z,0.00
2023-02-28T01:14:28.317Z,0.00
2023-02-28T01:16:54.976Z,0.00
2023-02-28T01:19:21.694Z,0.00
2023-02-28T01:21:48.474Z,-0.10
2023-02-28T01:24:15.063Z,-0.10
2023-02-28T01:26:41.696Z,-0.10
2023-02-28T01:29:08.367Z,-0.10
2023-02-28T01:31:35.267Z,-0.20
2023-02-28T01:34:02.134Z,-0.20
2023-02-28T01:36:28.884Z,-0.20
2023-02-28T01:38:55.623Z,-0.30
2023-02-28T01:41:26.076Z,-0.30
2023-02-28T01:44:00.871Z,-0.30
2023-02-28T01:46:27.659Z,-0.30
2023-02-28T01:49:04.735Z,-0.30
2023-02-28T01:51:38.812Z,-0.30
2023-02-28T01:54:14.618Z,-0.30
2023-02-28T01:56:51.953Z,-0.30
2023-02-28T01:59:24.614Z,-0.40
2023-02-28T02:01:51.277Z,-0.40
2023-02-28T02:04:18.010Z,-0.50
2023-02-28T02:06:48.560Z,-0.50
2023-02-28T02:09:15.282Z,-0.40
2023-02-28T02:11:44.198Z,-0.40
2023-02-28T02:14:25.717Z,-0.40
2023-02-28T02:17:02.231Z,-0.40
2023-02-28T02:20:07.514Z,-0.40
2023-02-28T02:23:03.511Z,-0.50
2023-02-28T02:25:45.287Z,-0.50
2023-02-28T02:28:32.902Z,-0.60
2023-02-28T02:31:29.365Z,-0.60
2023-02-28T02:34:27.215Z,-0.60
2023-02-28T02:37:19.620Z,-0.60
2023-02-28T02:40:04.655Z,-0.60
2023-02-28T02:42:43.562Z,-0.60
2023-02-28T02:45:42.028Z,-0.60
2023-02-28T02:48:14.729Z,-0.60
2023-02-28T02:50:46.352Z,-0.60
2023-02-28T02:53:15.994Z,-0.60
2023-02-28T02:55:44.932Z,-0.60
2023-02-28T02:58:17.600Z,-0.60
2023-02-28T03:00:49.648Z,-0.60
2023-02-28T03:03:19.326Z,-0.70
2023-02-28T03:05:47.936Z,-0.70
2023-02-28T03:08:15.802Z,-0.70
2023-02-28T03:10:44.882Z,-0.80
2023-02-28T03:13:26.576Z,-0.80
2023-02-28T03:16:10.148Z,-0.80
2023-02-28T03:18:58.660Z,-0.90
2023-02-28T03:21:59.500Z,-0.90
2023-02-28T03:25:04.477Z,-0.90
2023-02-28T03:27:37.431Z,-0.90
2023-02-28T03:30:28.356Z,-0.80
2023-02-28T03:33:00.723Z,-0.80
2023-02-28T03:35:36.951Z,-0.80
2023-02-28T03:38:22.939Z,-0.80
2023-02-28T03:40:56.077Z,-0.90
2023-02-28T03:43:32.867Z,-0.90
2023-02-28T03:46:03.417Z,-0.90
2023-02-28T03:48:41.466Z,-0.90
2023-02-28T03:51:10.692Z,-0.90
2023-02-28T03:53:43.259Z,-0.90
2023-02-28T03:56:19.213Z,-1.00
2023-02-28T03:59:13.381Z,-1.00
2023-02-28T04:01:43.722Z,-1.00
2023-02-28T04:04:12.173Z,-1.10
2023-02-28T04:06:39.127Z,-1.10
2023-02-28T04:09:07.278Z,-1.10
2023-02-28T04:11:39.167Z,-1.00
2023-02-28T04:14:06.882Z,-1.00
2023-02-28T04:16:36.124Z,-1.00
2023-02-28T04:19:07.279Z,-1.00
2023-02-28T04:21:42.135Z,-1.00
2023-02-28T04:24:15.015Z,-1.00
2023-02-28T04:26:46.865Z,-1.10
2023-02-28T04:29:15.641Z,-1.10
2023-02-28T04:31:42.278Z,-1.10
2023-02-28T04:34:09.025Z,-1.10
2023-02-28T04:36:35.761Z,-1.00
2023-02-28T04:39:02.709Z,-1.00
2023-02-28T04:41:32.323Z,-1.10
2023-02-28T04:43:59.419Z,-1.10
2023-02-28T04:46:26.113Z,-1.00
2023-02-28T04:48:52.718Z,-1.10
2023-02-28T04:59:53.613Z,-1.10
2023-02-28T05:02:22.040Z,-1.00
2023-02-28T05:04:48.708Z,-1.00
2023-02-28T05:07:15.398Z,-1.00
2023-02-28T05:09:42.024Z,-0.90
2023-02-28T05:12:10.215Z,-1.00
2023-02-28T05:14:37.524Z,-0.90
2023-02-28T05:17:04.156Z,-0.90
2023-02-28T05:19:30.776Z,-0.80
2023-02-28T05:21:57.607Z,-0.80
2023-02-28T05:24:24.457Z,-0.80
2023-02-28T05:26:53.781Z,-0.70
2023-02-28T05:29:20.606Z,-0.70
2023-02-28T05:31:47.810Z,-0.70
2023-02-28T05:34:17.057Z,-0.70
2023-02-28T05:36:44.027Z,-0.70
2023-02-28T05:39:13.516Z,-0.70
2023-02-28T05:41:41.328Z,-0.70
2023-02-28T05:44:07.982Z,-0.60
2023-02-28T05:46:34.718Z,-0.60
2023-02-28T05:49:01.776Z,-0.60
2023-02-28T05:51:29.171Z,-0.60
2023-02-28T05:53:58.995Z,-0.60
2023-02-28T05:56:25.535Z,-0.60
2023-02-28T05:58:52.209Z,-0.70
2023-02-28T06:01:40.207Z,-0.70
2023-02-28T06:04:14.321Z,-0.70
2023-02-28T06:06:47.046Z,-0.70
2023-02-28T06:09:14.109Z,-0.70
2023-02-28T06:11:40.900Z,-0.70
2023-02-28T06:14:07.991Z,-0.70
2023-02-28T06:16:36.591Z,-0.80
2023-02-28T06:19:04.867Z,-0.80
2023-02-28T06:21:32.341Z,-0.80
2023-02-28T06:23:59.777Z,-0.80
2023-02-28T06:26:26.638Z,-0.80
2023-02-28T06:28:53.310Z,-0.80
2023-02-28T06:31:20.059Z,-0.80
2023-02-28T06:33:47.542Z,-0.80
2023-02-28T06:36:15.174Z,-0.80
2023-02-28T06:38:42.010Z,-0.80
2023-02-28T06:41:09.538Z,-0.70
2023-02-28T06:43:39.802Z,-0.60
2023-02-28T06:46:09.500Z,-0.50
2023-02-28T06:48:36.890Z,-0.40
2023-02-28T06:51:05.839Z,-0.20
2023-02-28T06:53:32.689Z,-0.20
2023-02-28T06:55:59.292Z,-0.10
2023-02-28T06:58:26.212Z,-0.10
2023-02-28T07:00:53.902Z,-0.10
2023-02-28T07:03:20.873Z,0.00
2023-02-28T07:05:47.583Z,0.00
2023-02-28T07:08:14.297Z,0.20
2023-02-28T07:10:41.799Z,0.30
2023-02-28T07:13:09.668Z,0.40
2023-02-28T07:15:40.590Z,0.50
2023-02-28T07:18:08.316Z,0.70
2023-02-28T07:20:34.978Z,0.90
2023-02-28T07:23:01.633Z,0.90
2023-02-28T07:25:29.477Z,0.90
2023-02-28T07:27:57.161Z,0.70
2023-02-28T07:30:23.987Z,0.90
2023-02-28T07:32:50.572Z,1.00
2023-02-28T07:35:17.317Z,1.00
2023-02-28T07:37:44.130Z,1.30
2023-02-28T07:40:14.868Z,1.60
2023-02-28T07:42:42.518Z,1.90
2023-02-28T07:45:12.504Z,1.80
2023-02-28T07:47:43.052Z,1.50
2023-02-28T07:50:12.206Z,1.60
2023-02-28T07:52:39.646Z,1.60
2023-02-28T07:55:07.810Z,1.80
2023-02-28T07:57:34.647Z,1.90
2023-02-28T08:00:01.238Z,1.80
2023-02-28T08:02:27.899Z,1.90
2023-02-28T08:04:54.515Z,1.70
2023-02-28T08:07:21.708Z,1.90
2023-02-28T08:09:48.389Z,1.80
2023-02-28T08:12:15.751Z,1.90
2023-02-28T08:14:42.319Z,2.00
2023-02-28T08:17:09.981Z,2.10
2023-02-28T08:19:36.531Z,2.20
2023-02-28T08:22:03.303Z,2.10
2023-02-28T08:24:30.099Z,1.90
2023-02-28T08:26:57.251Z,2.10
2023-02-28T08:29:24.311Z,2.40
2023-02-28T08:31:50.974Z,2.50
2023-02-28T08:34:18.205Z,2.30
2023-02-28T08:36:46.706Z,2.30
2023-02-28T08:39:13.959Z,2.30
2023-02-28T08:41:40.678Z,2.50
2023-02-28T08:44:07.274Z,2.60
2023-02-28T08:46:33.950Z,2.70
2023-02-28T08:49:02.338Z,2.20
2023-02-28T08:51:29.933Z,2.40
2023-02-28T08:54:00.704Z,2.70
2023-02-28T08:56:28.959Z,2.80
2023-02-28T08:58:57.164Z,2.80
2023-02-28T09:01:29.889Z,2.70
2023-02-28T09:03:58.206Z,2.70
2023-02-28T09:06:27.065Z,2.60
2023-02-28T09:08:53.952Z,2.70
2023-02-28T09:11:21.006Z,3.00
2023-02-28T09:13:48.149Z,3.00
2023-02-28T09:16:17.322Z,2.80
2023-02-28T09:18:44.992Z,2.60
2023-02-28T09:21:17.588Z,2.80
2023-02-28T09:23:45.731Z,2.80
2023-02-28T09:26:23.811Z,2.90
2023-02-28T09:28:51.323Z,2.80
2023-02-28T09:31:22.254Z,2.90
2023-02-28T09:33:51.020Z,3.20
2023-02-28T09:36:18.047Z,3.20
2023-02-28T09:38:44.977Z,3.70
2023-02-28T09:41:16.301Z,3.30
2023-02-28T09:43:47.268Z,3.20
2023-02-28T09:46:33.974Z,3.40
2023-02-28T09:49:08.579Z,3.40
2023-02-28T09:52:03.088Z,3.30
2023-02-28T09:54:32.998Z,3.30
2023-02-28T09:57:10.719Z,3.60
2023-02-28T10:00:08.158Z,3.40
2023-02-28T10:02:47.094Z,3.50
2023-02-28T10:05:23.145Z,3.60
2023-02-28T10:07:59.933Z,3.70
2023-02-28T10:10:31.665Z,3.20
2023-02-28T10:13:01.131Z,3.50
2023-02-28T10:15:32.134Z,3.50
2023-02-28T10:18:09.208Z,3.60
2023-02-28T10:20:40.931Z,3.60
2023-02-28T10:23:16.507Z,3.60
2023-02-28T10:25:49.286Z,3.60
2023-02-28T10:28:18.752Z,3.60
2023-02-28T10:30:49.276Z,3.60
2023-02-28T10:33:24.588Z,4.30
2023-02-28T10:35:52.747Z,3.90
2023-02-28T10:38:29.910Z,3.50
2023-02-28T10:41:07.297Z,3.20
2023-02-28T10:43:34.025Z,3.50
2023-02-28T10:46:09.903Z,3.40
2023-02-28T10:48:46.643Z,3.30
2023-02-28T10:51:15.686Z,3.30
2023-02-28T10:54:01.143Z,3.10
2023-02-28T10:56:28.882Z,3.40
2023-02-28T10:59:01.378Z,2.90
2023-02-28T11:01:53.693Z,3.00
2023-02-28T11:04:37.507Z,2.80
2023-02-28T11:07:19.339Z,3.20
2023-02-28T11:09:50.211Z,3.60
2023-02-28T11:12:43.229Z,3.90
2023-02-28T11:15:26.393Z,3.60
2023-02-28T11:18:21.674Z,4.30
2023-02-28T11:20:53.968Z,4.70
2023-02-28T11:23:22.041Z,5.60
2023-02-28T11:25:59.547Z,5.50
2023-02-28T11:28:34.685Z,5.40
2023-02-28T11:31:14.881Z,5.50
2023-02-28T11:33:56.763Z,5.90
2023-02-28T11:36:27.692Z,5.80
2023-02-28T11:38:56.927Z,6.40
2023-02-28T11:41:41.300Z,6.40
2023-02-28T11:44:28.905Z,6.40
2023-02-28T11:47:16.576Z,5.50
2023-02-28T11:49:52.011Z,6.50
2023-02-28T11:52:34.225Z,6.90
2023-02-28T11:55:09.813Z,6.90
2023-02-28T11:57:45.825Z,6.10
2023-02-28T12:00:38.736Z,6.10
2023-02-28T12:03:22.234Z,7.00
2023-02-28T12:06:03.593Z,7.40
2023-02-28T12:08:54.958Z,6.70
2023-02-28T12:11:52.072Z,7.30
2023-02-28T12:14:41.529Z,6.30
2023-02-28T12:17:26.826Z,5.70
2023-02-28T12:19:59.381Z,5.50
2023-02-28T12:22:38.649Z,5.60
2023-02-28T12:25:08.021Z,5.20
2023-02-28T12:27:39.508Z,4.50
2023-02-28T12:30:19.786Z,4.40
2023-02-28T12:32:55.202Z,4.40
2023-02-28T12:35:33.448Z,4.20
2023-02-28T12:38:35.262Z,4.30
2023-02-28T12:41:10.296Z,5.00
2023-02-28T12:43:45.437Z,5.30
2023-02-28T12:46:22.859Z,6.10
2023-02-28T12:48:59.843Z,5.80
2023-02-28T12:51:28.061Z,4.80
2023-02-28T12:54:01.591Z,5.20
2023-02-28T12:56:46.576Z,6.00
2023-02-28T12:59:42.582Z,5.80
2023-02-28T13:02:18.153Z,5.80
2023-02-28T13:05:16.001Z,6.40
2023-02-28T13:08:05.162Z,6.30
2023-02-28T13:10:45.208Z,5.20
2023-02-28T13:13:21.309Z,4.70
2023-02-28T13:16:06.561Z,4.30
2023-02-28T13:18:43.852Z,3.80
2023-02-28T13:21:31.500Z,3.70
2023-02-28T13:24:04.821Z,3.70
2023-02-28T13:26:31.394Z,3.80
2023-02-28T13:29:11.747Z,3.70
2023-02-28T13:32:06.404Z,3.70
2023-02-28T13:34:57.152Z,3.60
2023-02-28T13:37:26.898Z,3.70
2023-02-28T13:39:54.546Z,3.80
2023-02-28T13:42:38.272Z,3.90
2023-02-28T13:45:04.964Z,3.70
2023-02-28T13:47:40.461Z,3.70
2023-02-28T13:50:25.072Z,3.70
2023-02-28T13:53:16.126Z,3.60
2023-02-28T13:55:58.466Z,3.50
2023-02-28T13:58:25.186Z,3.50
2023-02-28T14:01:30.042Z,3.50
2023-02-28T14:03:59.840Z,3.50
2023-02-28T14:06:33.218Z,3.60
2023-02-28T14:09:10.715Z,3.70
2023-02-28T14:11:40.135Z,3.70
2023-02-28T14:14:09.766Z,3.70
2023-02-28T14:16:48.248Z,3.70
2023-02-28T14:19:16.904Z,3.90
2023-02-28T14:22:18.577Z,3.70
2023-02-28T14:25:22.801Z,3.70
2023-02-28T14:28:04.485Z,3.70
2023-02-28T14:30:47.288Z,3.60
2023-02-28T14:33:41.598Z,3.70
2023-02-28T14:36:19.834Z,3.80
2023-02-28T14:38:51.675Z,3.70
2023-02-28T14:41:30.393Z,3.60
2023-02-28T14:44:00.209Z,3.60
2023-02-28T14:46:49.415Z,3.80
2023-02-28T14:49:21.625Z,3.70
2023-02-28T14:52:02.904Z,3.80
2023-02-28T14:54:30.150Z,3.90
2023-02-28T14:56:57.029Z,3.80
2023-02-28T14:59:32.561Z,3.80
2023-02-28T15:02:36.039Z,3.80
2023-02-28T15:05:38.132Z,3.80
2023-02-28T15:08:14.763Z,3.70
2023-02-28T15:10:51.796Z,3.70
2023-02-28T15:13:19.699Z,3.60
2023-02-28T15:16:02.019Z,3.60
2023-02-28T15:18:42.958Z,3.70
2023-02-28T15:21:17.789Z,3.70
2023-02-28T15:23:49.432Z,3.60
2023-02-28T15:26:22.589Z,3.60
2023-02-28T15:29:14.069Z,3.70
2023-02-28T15:31:56.414Z,3.70
2023-02-28T15:34:43.058Z,3.60
2023-02-28T15:37:37.655Z,3.50
2023-02-28T15:40:24.427Z,3.50
2023-02-28T15:43:17.905Z,3.50
2023-02-28T15:46:00.649Z,3.50
2023-02-28T15:48:37.907Z,3.40
2023-02-28T15:51:04.968Z,3.30
2023-02-28T15:53:34.986Z,3.30
2023-02-28T15:56:13.406Z,3.30
2023-02-28T15:58:42.242Z,3.30
2023-02-28T16:01:24.918Z,3.30
2023-02-28T16:03:54.540Z,3.20
2023-02-28T16:06:37.435Z,3.20
2023-02-28T16:09:06.011Z,3.20
2023-02-28T16:11:36.098Z,3.10
2023-02-28T16:14:04.075Z,3.10
2023-02-28T16:16:32.237Z,3.10
2023-02-28T16:18:58.930Z,3.20
2023-02-28T16:21:26.610Z,3.20
2023-02-28T16:23:53.335Z,3.20
2023-02-28T16:26:25.413Z,3.20
2023-02-28T16:28:52.754Z,3.10
2023-02-28T16:31:19.671Z,3.20
2023-02-28T16:33:47.315Z,3.10
2023-02-28T16:36:19.772Z,3.20
2023-02-28T16:38:46.536Z,3.20
2023-02-28T16:41:22.017Z,3.10
2023-02-28T16:43:51.128Z,3.00
2023-02-28T16:46:18.747Z,3.00
2023-02-28T16:48:46.215Z,2.90
2023-02-28T16:51:15.118Z,2.90
2023-02-28T16:53:42.004Z,2.90
2023-02-28T16:56:17.258Z,2.90
2023-02-28T16:58:44.354Z,2.90
2023-02-28T17:01:11.208Z,2.80
2023-02-28T17:03:38.398Z,2.80
2023-02-28T17:06:05.753Z,2.70
2023-02-28T17:08:33.154Z,2.70
2023-02-28T17:11:00.822Z,2.60
2023-02-28T17:13:27.729Z,2.60
2023-02-28T17:15:54.585Z,2.50
2023-02-28T17:18:24.568Z,2.60
2023-02-28T17:20:51.254Z,2.50
2023-02-28T17:23:18.028Z,2.50
2023-02-28T17:25:55.719Z,2.40
2023-02-28T17:28:24.001Z,2.30
2023-02-28T17:30:50.788Z,2.20
2023-02-28T17:33:17.624Z,2.20
2023-02-28T17:35:44.370Z,2.20
2023-02-28T17:38:17.388Z,2.10
2023-02-28T17:40:44.297Z,2.10
2023-02-28T17:43:11.114Z,2.00
2023-02-28T17:45:38.075Z,1.90
2023-02-28T17:48:05.010Z,1.90
2023-02-28T17:50:32.940Z,2.00
2023-02-28T17:52:59.607Z,1.90
2023-02-28T17:55:26.338Z,1.90
2023-02-28T17:57:53.108Z,2.00
2023-02-28T18:00:20.259Z,1.90
2023-02-28T18:02:47.022Z,1.90
2023-02-28T18:05:13.700Z,1.90
2023-02-28T18:07:41.764Z,1.90
2023-02-28T18:10:15.941Z,1.90
2023-02-28T18:12:42.641Z,1.90
2023-02-28T18:15:09.717Z,2.00
2023-02-28T18:17:36.395Z,1.90
2023-02-28T18:20:04.709Z,1.80
2023-02-28T18:22:31.426Z,1.80
2023-02-28T18:24:58.015Z,1.70
2023-02-28T18:27:24.710Z,1.70
2023-02-28T18:29:52.381Z,1.70
2023-02-28T18:32:19.150Z,1.70
2023-02-28T18:34:45.722Z,1.80
2023-02-28T18:37:12.380Z,1.70
2023-02-28T18:39:39.435Z,1.70
2023-02-28T18:42:06.102Z,1.70
2023-02-28T18:44:32.808Z,1.70
2023-02-28T18:46:59.705Z,1.60
2023-02-28T18:49:26.323Z,1.60
2023-02-28T18:51:53.341Z,1.50
2023-02-28T18:54:19.980Z,1.60
2023-02-28T18:56:46.711Z,1.50
2023-02-28T18:59:13.468Z,1.60
2023-02-28T19:01:40.882Z,1.60
2023-02-28T19:04:07.800Z,1.60
2023-02-28T19:06:35.023Z,1.60
2023-02-28T19:09:04.082Z,1.60
2023-02-28T19:11:31.347Z,1.60
2023-02-28T19:13:58.250Z,1.40
2023-02-28T19:16:25.659Z,1.50
2023-02-28T19:18:52.339Z,1.50
2023-02-28T19:21:21.714Z,1.50
2023-02-28T19:23:48.440Z,1.50
2023-02-28T19:26:21.535Z,1.50
2023-02-28T19:28:48.525Z,1.40
2023-02-28T19:31:22.172Z,1.40
2023-02-28T19:33:49.160Z,1.40
2023-02-28T19:36:16.400Z,1.30
2023-02-28T19:38:44.650Z,1.30
2023-02-28T19:41:13.648Z,1.30
2023-02-28T19:43:40.454Z,1.20
2023-02-28T19:46:09.456Z,1.20
2023-02-28T19:48:36.676Z,1.30
2023-02-28T19:51:09.602Z,1.20
2023-02-28T19:53:37.936Z,1.30
2023-02-28T19:56:04.901Z,1.30
2023-02-28T19:58:32.124Z,1.20
2023-02-28T20:01:01.243Z,1.20
2023-02-28T20:03:27.916Z,1.20
2023-02-28T20:06:02.803Z,1.20
2023-02-28T20:08:29.508Z,1.10
2023-02-28T20:10:56.137Z,1.10
2023-02-28T20:13:28.195Z,1.10
2023-02-28T20:15:55.148Z,1.00
2023-02-28T20:18:21.728Z,1.10
2023-02-28T20:20:48.330Z,1.10
2023-02-28T20:23:15.039Z,1.10
2023-02-28T20:25:42.328Z,0.90
2023-02-28T20:28:08.912Z,1.00
2023-02-28T20:30:35.597Z,1.10
2023-02-28T20:33:02.230Z,1.00
2023-02-28T20:35:28.949Z,1.00
2023-02-28T20:37:55.710Z,0.90
2023-02-28T20:40:22.341Z,0.90
2023-02-28T20:42:48.929Z,0.90
2023-02-28T20:45:15.685Z,0.90
2023-02-28T20:47:43.652Z,0.90
2023-02-28T20:50:11.366Z,0.90
2023-02-28T20:52:38.071Z,0.90
2023-02-28T20:55:05.459Z,0.80
2023-02-28T20:57:32.063Z,0.80
2023-02-28T20:59:58.737Z,0.70
2023-02-28T21:02:26.682Z,0.70
2023-02-28T21:04:53.420Z,0.70
2023-02-28T21:07:20.110Z,0.70
2023-02-28T21:09:46.730Z,0.80
2023-02-28T21:12:13.405Z,0.80
2023-02-28T21:14:40.031Z,0.70
2023-02-28T21:17:08.998Z,0.70
2023-02-28T21:19:35.645Z,0.70
2023-02-28T21:22:02.251Z,0.70
2023-02-28T21:24:28.948Z,0.60
2023-02-28T21:26:57.480Z,0.60
2023-02-28T21:29:24.286Z,0.60
2023-02-28T21:31:52.247Z,0.70
2023-02-28T21:34:19.324Z,0.70
2023-02-28T21:36:47.404Z,0.70
2023-02-28T21:39:21.746Z,0.70
2023-02-28T21:41:48.331Z,0.70
2023-02-28T21:44:22.658Z,0.70
2023-02-28T21:46:56.749Z,0.60
2023-02-28T21:49:23.788Z,0.60
2023-02-28T21:51:50.508Z,0.60
2023-02-28T21:54:17.121Z,0.60
2023-02-28T21:56:44.200Z,0.60
2023-02-28T21:59:11.379Z,0.60
2023-02-28T22:01:41.125Z,0.70
2023-02-28T22:04:10.163Z,0.60
2023-02-28T22:06:41.093Z,0.50
2023-02-28T22:09:09.646Z,0.60
2023-02-28T22:11:38.251Z,0.60
2023-02-28T22:14:06.545Z,0.50
2023-02-28T22:16:50.102Z,0.50
2023-02-28T22:19:17.900Z,0.60
2023-02-28T22:21:45.710Z,0.50
2023-02-28T22:24:12.834Z,0.60
2023-02-28T22:26:39.487Z,0.40
2023-02-28T22:29:06.237Z,0.40
2023-02-28T22:31:35.020Z,0.40
2023-02-28T22:34:05.930Z,0.50
2023-02-28T22:36:33.141Z,0.40
2023-02-28T22:39:02.777Z,0.40
2023-02-28T22:41:30.274Z,0.50
2023-02-28T22:43:59.745Z,0.40
2023-02-28T22:46:28.640Z,0.50
2023-02-28T22:48:55.731Z,0.50
2023-02-28T22:51:25.344Z,0.50
2023-02-28T22:53:52.817Z,0.60
2023-02-28T22:56:22.292Z,0.50
2023-02-28T22:58:54.540Z,0.50
2023-02-28T23:01:23.776Z,0.50
2023-02-28T23:03:51.117Z,0.50
2023-02-28T23:06:24.718Z,0.50
2023-02-28T23:08:53.092Z,0.50
2023-02-28T23:11:23.136Z,0.50
2023-02-28T23:13:59.696Z,0.40
2023-02-28T23:16:34.948Z,0.40
2023-02-28T23:19:04.944Z,0.40
2023-02-28T23:21:32.077Z,0.50
2023-02-28T23:24:02.639Z,0.40
2023-02-28T23:26:31.133Z,0.50
2023-02-28T23:28:58.062Z,0.40
2023-02-28T23:31:25.297Z,0.40
2023-02-28T23:33:52.009Z,0.40
2023-02-28T23:36:18.778Z,0.40
2023-02-28T23:38:51.841Z,0.40
2023-02-28T23:41:19.425Z,0.40
2023-02-28T23:43:46.363Z,0.40
2023-02-28T23:46:14.146Z,0.40
2023-02-28T23:48:41.704Z,0.40
2023-02-28T23:51:16.964Z,0.40
2023-02-28T23:53:46.002Z,0.40
2023-02-28T23:56:15.841Z,0.40
2023-02-28T23:58:44.324Z,0.40
